<?xml version="1.0" encoding="UTF-8" standalone="no" ?>
<gpx xmlns="http://www.topografix.com/GPX/1/1" xmlns:xsi="http://www.w3.org/2001/XMLSchema-instance" xsi:schemaLocation="http://www.topografix.com/GPX/1/1 http://www.topografix.com/GPX/1/1/gpx.xsd" version="1.1" creator="VisuGPX - https://www.visugpx.com">
  <metadata>
    <name>étape 6-2_Col de Linas</name>
  </metadata>
  <trk>
    <name><![CDATA[étape_6_Axat_Argeles_Variante 2_151 kms_1574 D+]]></name>
    <extensions>
      <line xmlns="http://www.topografix.com/GPX/gpx_style/0/2">
        <color>0000FF</color>
        <width>4</width>
      </line>
    </extensions>
    <trkseg>
      <trkpt lat="42.8791" lon="2.36046">
        <ele>525.7</ele>
        <time>2021-08-30T22:33:40.194Z</time>
      </trkpt>
      <trkpt lat="42.87911" lon="2.36091">
        <ele>529.4</ele>
        <time>2021-08-30T22:33:56.012Z</time>
      </trkpt>
      <trkpt lat="42.87907" lon="2.36103">
        <ele>530.9</ele>
        <time>2021-08-30T22:34:02.069Z</time>
      </trkpt>
      <trkpt lat="42.879" lon="2.36107">
        <ele>532.3</ele>
        <time>2021-08-30T22:34:06.826Z</time>
      </trkpt>
      <trkpt lat="42.87894" lon="2.36108">
        <ele>533.3</ele>
        <time>2021-08-30T22:34:10.616Z</time>
      </trkpt>
      <trkpt lat="42.87886" lon="2.36102">
        <ele>534.1</ele>
        <time>2021-08-30T22:34:14.060Z</time>
      </trkpt>
      <trkpt lat="42.87879" lon="2.36091">
        <ele>534.4</ele>
        <time>2021-08-30T22:34:16.396Z</time>
      </trkpt>
      <trkpt lat="42.87853" lon="2.36068">
        <ele>535.9</ele>
        <time>2021-08-30T22:34:25.112Z</time>
      </trkpt>
      <trkpt lat="42.87827" lon="2.3605">
        <ele>536.2</ele>
        <time>2021-08-30T22:34:30.344Z</time>
      </trkpt>
      <trkpt lat="42.87817" lon="2.36045">
        <ele>535.4</ele>
        <time>2021-08-30T22:34:31.241Z</time>
      </trkpt>
      <trkpt lat="42.87808" lon="2.36043">
        <ele>535</ele>
        <time>2021-08-30T22:34:32.092Z</time>
      </trkpt>
      <trkpt lat="42.87799" lon="2.36047">
        <ele>535.5</ele>
        <time>2021-08-30T22:34:34.832Z</time>
      </trkpt>
      <trkpt lat="42.87793" lon="2.36055">
        <ele>536.6</ele>
        <time>2021-08-30T22:34:39.922Z</time>
      </trkpt>
      <trkpt lat="42.87779" lon="2.36078">
        <ele>539.6</ele>
        <time>2021-08-30T22:34:53.659Z</time>
      </trkpt>
      <trkpt lat="42.87743" lon="2.36129">
        <ele>545.4</ele>
        <time>2021-08-30T22:35:18.434Z</time>
      </trkpt>
      <trkpt lat="42.87719" lon="2.36175">
        <ele>550.1</ele>
        <time>2021-08-30T22:35:38.593Z</time>
      </trkpt>
      <trkpt lat="42.8771" lon="2.36196">
        <ele>551.9</ele>
        <time>2021-08-30T22:35:46.200Z</time>
      </trkpt>
      <trkpt lat="42.87702" lon="2.36205">
        <ele>552.5</ele>
        <time>2021-08-30T22:35:49.307Z</time>
      </trkpt>
      <trkpt lat="42.87695" lon="2.36207">
        <ele>552.4</ele>
        <time>2021-08-30T22:35:50.226Z</time>
      </trkpt>
      <trkpt lat="42.87676" lon="2.36198">
        <ele>550.9</ele>
        <time>2021-08-30T22:35:51.920Z</time>
      </trkpt>
      <trkpt lat="42.87668" lon="2.36198">
        <ele>550.7</ele>
        <time>2021-08-30T22:35:52.822Z</time>
      </trkpt>
      <trkpt lat="42.87657" lon="2.36202">
        <ele>552</ele>
        <time>2021-08-30T22:35:58.407Z</time>
      </trkpt>
      <trkpt lat="42.87652" lon="2.36211">
        <ele>553.4</ele>
        <time>2021-08-30T22:36:03.595Z</time>
      </trkpt>
      <trkpt lat="42.87651" lon="2.36221">
        <ele>554.5</ele>
        <time>2021-08-30T22:36:08.232Z</time>
      </trkpt>
      <trkpt lat="42.87654" lon="2.3623">
        <ele>555</ele>
        <time>2021-08-30T22:36:10.584Z</time>
      </trkpt>
      <trkpt lat="42.87662" lon="2.3624">
        <ele>554.8</ele>
        <time>2021-08-30T22:36:11.904Z</time>
      </trkpt>
      <trkpt lat="42.87697" lon="2.36268">
        <ele>558.6</ele>
        <time>2021-08-30T22:36:28.056Z</time>
      </trkpt>
      <trkpt lat="42.87706" lon="2.36269">
        <ele>559</ele>
        <time>2021-08-30T22:36:30.525Z</time>
      </trkpt>
      <trkpt lat="42.87717" lon="2.36266">
        <ele>559</ele>
        <time>2021-08-30T22:36:32.349Z</time>
      </trkpt>
      <trkpt lat="42.87748" lon="2.36251">
        <ele>559</ele>
        <time>2021-08-30T22:36:37.695Z</time>
      </trkpt>
      <trkpt lat="42.87756" lon="2.3625">
        <ele>558.1</ele>
        <time>2021-08-30T22:36:38.372Z</time>
      </trkpt>
      <trkpt lat="42.87762" lon="2.36251">
        <ele>557.3</ele>
        <time>2021-08-30T22:36:38.881Z</time>
      </trkpt>
      <trkpt lat="42.87768" lon="2.36258">
        <ele>556.9</ele>
        <time>2021-08-30T22:36:39.574Z</time>
      </trkpt>
      <trkpt lat="42.87771" lon="2.3627">
        <ele>557.1</ele>
        <time>2021-08-30T22:36:41.455Z</time>
      </trkpt>
      <trkpt lat="42.87769" lon="2.36326">
        <ele>560.5</ele>
        <time>2021-08-30T22:36:56.323Z</time>
      </trkpt>
      <trkpt lat="42.87764" lon="2.36375">
        <ele>562.5</ele>
        <time>2021-08-30T22:37:06.987Z</time>
      </trkpt>
      <trkpt lat="42.87759" lon="2.36393">
        <ele>563.8</ele>
        <time>2021-08-30T22:37:12.527Z</time>
      </trkpt>
      <trkpt lat="42.8775" lon="2.36409">
        <ele>565.9</ele>
        <time>2021-08-30T22:37:21.793Z</time>
      </trkpt>
      <trkpt lat="42.87737" lon="2.36427">
        <ele>568.5</ele>
        <time>2021-08-30T22:37:33.404Z</time>
      </trkpt>
      <trkpt lat="42.87724" lon="2.36436">
        <ele>570.8</ele>
        <time>2021-08-30T22:37:42.543Z</time>
      </trkpt>
      <trkpt lat="42.87709" lon="2.36443">
        <ele>573.2</ele>
        <time>2021-08-30T22:37:52.482Z</time>
      </trkpt>
      <trkpt lat="42.87672" lon="2.36456">
        <ele>578.7</ele>
        <time>2021-08-30T22:38:16.435Z</time>
      </trkpt>
      <trkpt lat="42.87665" lon="2.36465">
        <ele>579.9</ele>
        <time>2021-08-30T22:38:21.794Z</time>
      </trkpt>
      <trkpt lat="42.87664" lon="2.36476">
        <ele>580.5</ele>
        <time>2021-08-30T22:38:24.530Z</time>
      </trkpt>
      <trkpt lat="42.87669" lon="2.36488">
        <ele>580.3</ele>
        <time>2021-08-30T22:38:25.742Z</time>
      </trkpt>
      <trkpt lat="42.87677" lon="2.3649">
        <ele>579.4</ele>
        <time>2021-08-30T22:38:26.427Z</time>
      </trkpt>
      <trkpt lat="42.87704" lon="2.36483">
        <ele>575.7</ele>
        <time>2021-08-30T22:38:28.742Z</time>
      </trkpt>
      <trkpt lat="42.87718" lon="2.36484">
        <ele>574</ele>
        <time>2021-08-30T22:38:29.923Z</time>
      </trkpt>
      <trkpt lat="42.87733" lon="2.36496">
        <ele>572.8</ele>
        <time>2021-08-30T22:38:31.388Z</time>
      </trkpt>
      <trkpt lat="42.87745" lon="2.36512">
        <ele>573.6</ele>
        <time>2021-08-30T22:38:36.085Z</time>
      </trkpt>
      <trkpt lat="42.87777" lon="2.3662">
        <ele>584</ele>
        <time>2021-08-30T22:39:21.916Z</time>
      </trkpt>
      <trkpt lat="42.87787" lon="2.36667">
        <ele>587.7</ele>
        <time>2021-08-30T22:39:37.558Z</time>
      </trkpt>
      <trkpt lat="42.87795" lon="2.36733">
        <ele>590.9</ele>
        <time>2021-08-30T22:39:53.040Z</time>
      </trkpt>
      <trkpt lat="42.87792" lon="2.36795">
        <ele>598.3</ele>
        <time>2021-08-30T22:40:21.586Z</time>
      </trkpt>
      <trkpt lat="42.87795" lon="2.36817">
        <ele>600.6</ele>
        <time>2021-08-30T22:40:31.867Z</time>
      </trkpt>
      <trkpt lat="42.878" lon="2.36831">
        <ele>601.7</ele>
        <time>2021-08-30T22:40:36.526Z</time>
      </trkpt>
      <trkpt lat="42.87808" lon="2.36835">
        <ele>601.2</ele>
        <time>2021-08-30T22:40:37.226Z</time>
      </trkpt>
      <trkpt lat="42.87814" lon="2.36834">
        <ele>600.4</ele>
        <time>2021-08-30T22:40:37.736Z</time>
      </trkpt>
      <trkpt lat="42.8783" lon="2.36812">
        <ele>594.9</ele>
        <time>2021-08-30T22:40:39.649Z</time>
      </trkpt>
      <trkpt lat="42.8784" lon="2.36805">
        <ele>593.2</ele>
        <time>2021-08-30T22:40:40.596Z</time>
      </trkpt>
      <trkpt lat="42.87851" lon="2.36805">
        <ele>593.2</ele>
        <time>2021-08-30T22:40:42.384Z</time>
      </trkpt>
      <trkpt lat="42.87877" lon="2.36816">
        <ele>594.8</ele>
        <time>2021-08-30T22:40:50.592Z</time>
      </trkpt>
      <trkpt lat="42.87889" lon="2.36824">
        <ele>595.9</ele>
        <time>2021-08-30T22:40:55.410Z</time>
      </trkpt>
      <trkpt lat="42.87894" lon="2.36833">
        <ele>597.2</ele>
        <time>2021-08-30T22:41:00.598Z</time>
      </trkpt>
      <trkpt lat="42.87896" lon="2.36845">
        <ele>598.5</ele>
        <time>2021-08-30T22:41:06.252Z</time>
      </trkpt>
      <trkpt lat="42.87885" lon="2.36891">
        <ele>603.6</ele>
        <time>2021-08-30T22:41:28.482Z</time>
      </trkpt>
      <trkpt lat="42.87873" lon="2.36982">
        <ele>612.7</ele>
        <time>2021-08-30T22:42:10.960Z</time>
      </trkpt>
      <trkpt lat="42.8787" lon="2.3702">
        <ele>615.4</ele>
        <time>2021-08-30T22:42:22.397Z</time>
      </trkpt>
      <trkpt lat="42.87864" lon="2.37045">
        <ele>616.5</ele>
        <time>2021-08-30T22:42:28.142Z</time>
      </trkpt>
      <trkpt lat="42.87855" lon="2.37061">
        <ele>617</ele>
        <time>2021-08-30T22:42:31.623Z</time>
      </trkpt>
      <trkpt lat="42.87845" lon="2.37078">
        <ele>617.4</ele>
        <time>2021-08-30T22:42:34.992Z</time>
      </trkpt>
      <trkpt lat="42.87841" lon="2.37092">
        <ele>618</ele>
        <time>2021-08-30T22:42:38.217Z</time>
      </trkpt>
      <trkpt lat="42.87842" lon="2.37106">
        <ele>618.9</ele>
        <time>2021-08-30T22:42:42.094Z</time>
      </trkpt>
      <trkpt lat="42.87851" lon="2.37123">
        <ele>620.3</ele>
        <time>2021-08-30T22:42:48.072Z</time>
      </trkpt>
      <trkpt lat="42.87857" lon="2.37133">
        <ele>621.2</ele>
        <time>2021-08-30T22:42:51.890Z</time>
      </trkpt>
      <trkpt lat="42.87862" lon="2.37142">
        <ele>622</ele>
        <time>2021-08-30T22:42:55.278Z</time>
      </trkpt>
      <trkpt lat="42.87865" lon="2.37167">
        <ele>623.5</ele>
        <time>2021-08-30T22:43:01.888Z</time>
      </trkpt>
      <trkpt lat="42.87868" lon="2.37251">
        <ele>628.3</ele>
        <time>2021-08-30T22:43:23.319Z</time>
      </trkpt>
      <trkpt lat="42.87869" lon="2.37283">
        <ele>630.4</ele>
        <time>2021-08-30T22:43:32.316Z</time>
      </trkpt>
      <trkpt lat="42.87866" lon="2.37354">
        <ele>634</ele>
        <time>2021-08-30T22:43:49.244Z</time>
      </trkpt>
      <trkpt lat="42.87879" lon="2.37444">
        <ele>635</ele>
        <time>2021-08-30T22:44:01.894Z</time>
      </trkpt>
      <trkpt lat="42.87878" lon="2.37461">
        <ele>635</ele>
        <time>2021-08-30T22:44:03.925Z</time>
      </trkpt>
      <trkpt lat="42.87873" lon="2.37472">
        <ele>635</ele>
        <time>2021-08-30T22:44:05.467Z</time>
      </trkpt>
      <trkpt lat="42.87858" lon="2.37497">
        <ele>634.6</ele>
        <time>2021-08-30T22:44:08.401Z</time>
      </trkpt>
      <trkpt lat="42.87854" lon="2.37516">
        <ele>634.9</ele>
        <time>2021-08-30T22:44:11.307Z</time>
      </trkpt>
      <trkpt lat="42.87855" lon="2.37545">
        <ele>635.7</ele>
        <time>2021-08-30T22:44:16.582Z</time>
      </trkpt>
      <trkpt lat="42.87861" lon="2.37578">
        <ele>637.5</ele>
        <time>2021-08-30T22:44:24.871Z</time>
      </trkpt>
      <trkpt lat="42.87871" lon="2.37638">
        <ele>639.3</ele>
        <time>2021-08-30T22:44:36.425Z</time>
      </trkpt>
      <trkpt lat="42.8788" lon="2.37702">
        <ele>641</ele>
        <time>2021-08-30T22:44:47.942Z</time>
      </trkpt>
      <trkpt lat="42.8788" lon="2.37703">
        <ele>641</ele>
        <time>2021-08-30T22:44:48.061Z</time>
      </trkpt>
      <trkpt lat="42.8789" lon="2.37781">
        <ele>641.8</ele>
        <time>2021-08-30T22:44:58.856Z</time>
      </trkpt>
      <trkpt lat="42.87895" lon="2.37805">
        <ele>641.7</ele>
        <time>2021-08-30T22:45:01.598Z</time>
      </trkpt>
      <trkpt lat="42.87906" lon="2.37842">
        <ele>641.5</ele>
        <time>2021-08-30T22:45:05.903Z</time>
      </trkpt>
      <trkpt lat="42.87919" lon="2.37879">
        <ele>642.5</ele>
        <time>2021-08-30T22:45:12.931Z</time>
      </trkpt>
      <trkpt lat="42.87925" lon="2.37904">
        <ele>643.9</ele>
        <time>2021-08-30T22:45:19.364Z</time>
      </trkpt>
      <trkpt lat="42.87935" lon="2.37952">
        <ele>648.1</ele>
        <time>2021-08-30T22:45:37.436Z</time>
      </trkpt>
      <trkpt lat="42.87942" lon="2.37997">
        <ele>652</ele>
        <time>2021-08-30T22:45:54.257Z</time>
      </trkpt>
      <trkpt lat="42.87943" lon="2.38014">
        <ele>653.6</ele>
        <time>2021-08-30T22:46:01.524Z</time>
      </trkpt>
      <trkpt lat="42.87939" lon="2.38025">
        <ele>653.7</ele>
        <time>2021-08-30T22:46:03.153Z</time>
      </trkpt>
      <trkpt lat="42.8792" lon="2.38048">
        <ele>652.2</ele>
        <time>2021-08-30T22:46:05.233Z</time>
      </trkpt>
      <trkpt lat="42.87915" lon="2.38062">
        <ele>652.9</ele>
        <time>2021-08-30T22:46:08.737Z</time>
      </trkpt>
      <trkpt lat="42.87912" lon="2.38095">
        <ele>655.1</ele>
        <time>2021-08-30T22:46:18.145Z</time>
      </trkpt>
      <trkpt lat="42.87907" lon="2.38102">
        <ele>655</ele>
        <time>2021-08-30T22:46:19.066Z</time>
      </trkpt>
      <trkpt lat="42.87884" lon="2.38108">
        <ele>653.7</ele>
        <time>2021-08-30T22:46:21.040Z</time>
      </trkpt>
      <trkpt lat="42.87876" lon="2.38113">
        <ele>653.3</ele>
        <time>2021-08-30T22:46:21.849Z</time>
      </trkpt>
      <trkpt lat="42.87872" lon="2.38122">
        <ele>653.4</ele>
        <time>2021-08-30T22:46:23.272Z</time>
      </trkpt>
      <trkpt lat="42.87872" lon="2.3814">
        <ele>654.2</ele>
        <time>2021-08-30T22:46:27.302Z</time>
      </trkpt>
      <trkpt lat="42.87892" lon="2.38251">
        <ele>658.8</ele>
        <time>2021-08-30T22:46:51.901Z</time>
      </trkpt>
      <trkpt lat="42.87915" lon="2.38357">
        <ele>661.9</ele>
        <time>2021-08-30T22:47:12.174Z</time>
      </trkpt>
      <trkpt lat="42.87922" lon="2.38387">
        <ele>663.5</ele>
        <time>2021-08-30T22:47:19.683Z</time>
      </trkpt>
      <trkpt lat="42.87925" lon="2.38408">
        <ele>664.5</ele>
        <time>2021-08-30T22:47:24.581Z</time>
      </trkpt>
      <trkpt lat="42.87918" lon="2.38423">
        <ele>664.7</ele>
        <time>2021-08-30T22:47:27.046Z</time>
      </trkpt>
      <trkpt lat="42.87909" lon="2.38428">
        <ele>665.2</ele>
        <time>2021-08-30T22:47:29.834Z</time>
      </trkpt>
      <trkpt lat="42.87888" lon="2.3843">
        <ele>665.7</ele>
        <time>2021-08-30T22:47:34.207Z</time>
      </trkpt>
      <trkpt lat="42.87874" lon="2.3844">
        <ele>666.9</ele>
        <time>2021-08-30T22:47:39.618Z</time>
      </trkpt>
      <trkpt lat="42.87868" lon="2.38451">
        <ele>668.1</ele>
        <time>2021-08-30T22:47:44.856Z</time>
      </trkpt>
      <trkpt lat="42.87868" lon="2.3846">
        <ele>669</ele>
        <time>2021-08-30T22:47:48.991Z</time>
      </trkpt>
      <trkpt lat="42.87869" lon="2.38469">
        <ele>670</ele>
        <time>2021-08-30T22:47:53.173Z</time>
      </trkpt>
      <trkpt lat="42.87871" lon="2.38487">
        <ele>671.8</ele>
        <time>2021-08-30T22:48:01.537Z</time>
      </trkpt>
      <trkpt lat="42.87876" lon="2.38506">
        <ele>673</ele>
        <time>2021-08-30T22:48:06.818Z</time>
      </trkpt>
      <trkpt lat="42.87882" lon="2.38534">
        <ele>673.3</ele>
        <time>2021-08-30T22:48:10.806Z</time>
      </trkpt>
      <trkpt lat="42.87901" lon="2.38619">
        <ele>673.1</ele>
        <time>2021-08-30T22:48:20.915Z</time>
      </trkpt>
      <trkpt lat="42.87907" lon="2.38654">
        <ele>672.2</ele>
        <time>2021-08-30T22:48:23.612Z</time>
      </trkpt>
      <trkpt lat="42.87908" lon="2.38663">
        <ele>672</ele>
        <time>2021-08-30T22:48:24.325Z</time>
      </trkpt>
      <trkpt lat="42.87906" lon="2.38687">
        <ele>671.4</ele>
        <time>2021-08-30T22:48:26.142Z</time>
      </trkpt>
      <trkpt lat="42.87896" lon="2.38737">
        <ele>669.9</ele>
        <time>2021-08-30T22:48:29.834Z</time>
      </trkpt>
      <trkpt lat="42.87896" lon="2.38777">
        <ele>669.3</ele>
        <time>2021-08-30T22:48:33.315Z</time>
      </trkpt>
      <trkpt lat="42.87908" lon="2.38854">
        <ele>669.8</ele>
        <time>2021-08-30T22:48:43.500Z</time>
      </trkpt>
    </trkseg>
  </trk>
</gpx>